Time;durP1;ratioP1;P1;durP2;ratioP2;P2;SDS_P1;SDS_P2;PMS_P1;PMS_P2;Temp;Humidity;BMP_temperature;BMP_pressure;BME280_temperature;BME280_humidity;BME280_pressure;Samples;Min_cycle;Max_cycle;Signal;HPM_P1;HPM_P2
2021/06/26 00:00:12;;;;;;;14.47;12.87;;;16.50;99.90;;;;;;4983185;28;20502;-80
2021/06/26 00:02:40;;;;;;;15.50;12.20;;;16.50;99.90;;;;;;4986703;28;20472;-80
2021/06/26 00:05:09;;;;;;;15.30;12.63;;;16.50;99.90;;;;;;4981308;28;20466;-78
2021/06/26 00:07:39;;;;;;;14.90;11.87;;;16.60;99.90;;;;;;4992679;28;20482;-78
2021/06/26 00:10:07;;;;;;;17.30;12.47;;;16.50;99.90;;;;;;4961269;28;20864;-78
2021/06/26 00:12:34;;;;;;;20.63;11.50;;;16.50;99.90;;;;;;4976010;28;20558;-80
2021/06/26 00:15:01;;;;;;;14.43;12.07;;;16.50;99.90;;;;;;4960979;28;20439;-78
2021/06/26 00:17:28;;;;;;;13.70;11.73;;;16.50;99.90;;;;;;4978682;28;21058;-78
2021/06/26 00:19:55;;;;;;;11.97;10.77;;;16.40;99.90;;;;;;4945102;28;20807;-78
2021/06/26 00:22:22;;;;;;;12.33;10.97;;;16.30;99.90;;;;;;4944576;28;20510;-80
2021/06/26 00:24:49;;;;;;;15.50;11.23;;;16.20;99.90;;;;;;4944139;28;20509;-78
2021/06/26 00:27:16;;;;;;;16.77;12.13;;;16.20;99.90;;;;;;4960295;28;20475;-78
2021/06/26 00:29:43;;;;;;;16.03;11.40;;;16.20;99.90;;;;;;4960513;28;20431;-79
2021/06/26 00:32:09;;;;;;;17.63;12.10;;;16.20;99.90;;;;;;4968381;28;20470;-80
2021/06/26 00:34:37;;;;;;;13.80;11.60;;;16.20;99.90;;;;;;4991556;28;20464;-78
2021/06/26 00:37:04;;;;;;;14.83;12.47;;;16.10;99.90;;;;;;4995007;28;20980;-78
2021/06/26 00:39:31;;;;;;;14.53;12.33;;;16.10;99.90;;;;;;4979493;28;20438;-78
2021/06/26 00:42:02;;;;;;;15.97;13.30;;;16.10;99.90;;;;;;4964446;28;20489;-80
2021/06/26 00:44:29;;;;;;;17.03;12.67;;;16.10;99.90;;;;;;4961784;28;20557;-80
2021/06/26 00:46:56;;;;;;;18.57;13.37;;;16.10;99.90;;;;;;4959515;28;20467;-78
2021/06/26 00:49:23;;;;;;;14.07;11.87;;;16.10;99.90;;;;;;4976728;28;20447;-78
2021/06/26 00:51:50;;;;;;;17.73;12.93;;;16.10;99.90;;;;;;4992799;28;20505;-80
2021/06/26 00:54:17;;;;;;;16.53;14.50;;;16.10;99.90;;;;;;4994832;28;20504;-79
2021/06/26 00:56:44;;;;;;;16.13;13.53;;;16.10;99.90;;;;;;4980142;28;20469;-79
2021/06/26 00:59:13;;;;;;;19.80;14.43;;;16.10;99.90;;;;;;4981304;28;20442;-80
2021/06/26 01:01:40;;;;;;;16.53;14.83;;;16.10;99.90;;;;;;4978965;28;20462;-79
2021/06/26 01:04:07;;;;;;;16.27;14.20;;;16.10;99.90;;;;;;4943945;28;20771;-78
2021/06/26 01:06:34;;;;;;;18.17;15.70;;;16.10;99.90;;;;;;4945751;28;20471;-80
2021/06/26 01:09:01;;;;;;;18.97;15.13;;;16.10;99.90;;;;;;4982495;28;20442;-78
2021/06/26 01:11:28;;;;;;;18.30;15.13;;;16.10;99.90;;;;;;4986673;28;20497;-76
2021/06/26 01:13:57;;;;;;;21.90;14.47;;;16.10;99.90;;;;;;4969795;28;20521;-81
2021/06/26 01:16:25;;;;;;;14.83;13.20;;;16.00;99.90;;;;;;4969059;28;21057;-78
2021/06/26 01:18:52;;;;;;;16.17;13.37;;;16.00;99.90;;;;;;4959344;28;20558;-78
2021/06/26 01:21:19;;;;;;;19.43;14.90;;;15.90;99.90;;;;;;4958575;28;20535;-78
2021/06/26 01:23:49;;;;;;;16.83;13.80;;;15.90;99.90;;;;;;4959287;28;20490;-81
2021/06/26 01:26:17;;;;;;;14.87;13.27;;;15.90;99.90;;;;;;4976458;28;20559;-78
2021/06/26 01:28:44;;;;;;;15.73;13.17;;;15.80;99.90;;;;;;4992905;28;20561;-78
2021/06/26 01:31:11;;;;;;;15.50;13.80;;;15.90;99.90;;;;;;4994184;28;20504;-79
2021/06/26 01:33:38;;;;;;;16.90;13.40;;;15.90;99.90;;;;;;4978073;28;20470;-80
2021/06/26 01:36:05;;;;;;;18.77;13.20;;;15.80;99.90;;;;;;4995338;28;20460;-78
2021/06/26 01:38:32;;;;;;;15.63;14.03;;;15.80;99.90;;;;;;4976511;28;20469;-78
2021/06/26 01:40:58;;;;;;;17.33;13.80;;;15.80;99.90;;;;;;4975962;28;20526;-78
2021/06/26 01:43:25;;;;;;;18.17;13.97;;;15.70;99.90;;;;;;4991180;28;20879;-78
2021/06/26 01:45:52;;;;;;;16.17;13.33;;;15.70;99.90;;;;;;4984660;28;20565;-78
2021/06/26 01:48:22;;;;;;;15.50;12.83;;;15.70;99.90;;;;;;4977778;28;20460;-78
2021/06/26 01:50:49;;;;;;;18.23;13.07;;;15.60;99.90;;;;;;4978112;28;20559;-78
2021/06/26 01:53:18;;;;;;;18.10;14.27;;;15.60;99.90;;;;;;4984734;28;20445;-78
2021/06/26 01:55:44;;;;;;;18.60;15.17;;;15.60;99.90;;;;;;4994151;28;20430;-79
2021/06/26 01:58:11;;;;;;;18.93;16.53;;;15.60;99.90;;;;;;5011306;28;20500;-79
2021/06/26 02:00:38;;;;;;;18.70;15.43;;;15.50;99.90;;;;;;5011093;28;20453;-79
2021/06/26 02:03:06;;;;;;;21.23;15.27;;;15.50;99.90;;;;;;5010781;28;20445;-78
2021/06/26 02:05:33;;;;;;;18.73;15.37;;;15.50;99.90;;;;;;4994098;28;20561;-82
2021/06/26 02:08:01;;;;;;;19.13;15.13;;;15.50;99.90;;;;;;4980133;28;20474;-78
2021/06/26 02:10:28;;;;;;;16.43;14.70;;;15.50;99.90;;;;;;4959672;28;20442;-78
2021/06/26 02:12:56;;;;;;;18.00;16.00;;;15.60;99.90;;;;;;4975908;28;20466;-79
2021/06/26 02:15:23;;;;;;;17.17;13.90;;;15.60;99.90;;;;;;4979319;28;20508;-77
2021/06/26 02:17:50;;;;;;;15.77;14.07;;;15.60;99.90;;;;;;4977818;28;20493;-78
2021/06/26 02:20:16;;;;;;;14.03;12.57;;;15.50;99.90;;;;;;4979657;28;20430;-78
2021/06/26 02:22:45;;;;;;;14.43;12.57;;;15.50;99.90;;;;;;4996055;28;20477;-84
2021/06/26 02:25:17;;;;;;;13.90;10.60;;;15.50;99.90;;;;;;4988397;28;20466;-78
2021/06/26 02:27:44;;;;;;;14.53;11.70;;;15.40;99.90;;;;;;4978726;28;20469;-78
2021/06/26 02:30:12;;;;;;;13.73;11.70;;;15.40;99.90;;;;;;4996931;28;20413;-80
2021/06/26 02:32:40;;;;;;;16.53;11.13;;;15.30;99.90;;;;;;4974111;28;20475;-78
2021/06/26 02:35:08;;;;;;;13.50;10.00;;;15.30;99.90;;;;;;4971718;28;20477;-78
2021/06/26 02:37:35;;;;;;;13.13;10.30;;;15.20;99.90;;;;;;5010636;28;20485;-78
2021/06/26 02:40:02;;;;;;;13.90;11.97;;;15.20;99.90;;;;;;4995433;28;20811;-81
2021/06/26 02:42:29;;;;;;;13.17;10.33;;;15.10;99.90;;;;;;4994315;28;20504;-78
2021/06/26 02:44:56;;;;;;;14.17;11.33;;;15.00;99.90;;;;;;5009350;28;20476;-79
2021/06/26 02:47:23;;;;;;;15.67;11.00;;;15.00;99.90;;;;;;4975698;28;20489;-77
2021/06/26 02:49:50;;;;;;;18.13;11.00;;;14.90;99.90;;;;;;4976346;28;20809;-78
2021/06/26 02:52:17;;;;;;;14.03;12.53;;;14.90;99.90;;;;;;4992311;28;20470;-79
2021/06/26 02:54:44;;;;;;;16.00;11.90;;;14.90;99.90;;;;;;4993431;28;20445;-78
2021/06/26 02:57:11;;;;;;;14.90;12.10;;;14.90;99.90;;;;;;4978618;28;20532;-79
2021/06/26 02:59:37;;;;;;;18.10;13.23;;;14.90;99.90;;;;;;4979664;28;20989;-78
2021/06/26 03:02:04;;;;;;;15.40;12.47;;;14.90;99.90;;;;;;5013405;28;20507;-79
2021/06/26 03:04:31;;;;;;;14.77;11.80;;;15.00;99.90;;;;;;4980089;28;20473;-78
2021/06/26 03:06:58;;;;;;;14.33;11.70;;;14.90;99.90;;;;;;4979355;28;21004;-78
2021/06/26 03:09:25;;;;;;;19.03;12.60;;;14.90;99.90;;;;;;4994457;28;20481;-80
2021/06/26 03:11:52;;;;;;;16.73;13.40;;;14.90;99.90;;;;;;4976827;28;20476;-78
2021/06/26 03:14:19;;;;;;;17.83;12.90;;;14.90;99.90;;;;;;4993021;28;20471;-82
2021/06/26 03:16:45;;;;;;;18.30;15.07;;;15.00;99.90;;;;;;4992537;28;20562;-78
2021/06/26 03:19:14;;;;;;;17.67;13.90;;;15.10;99.90;;;;;;4994227;28;20708;-80
2021/06/26 03:21:41;;;;;;;17.33;15.07;;;15.10;99.90;;;;;;4977763;28;20468;-78
2021/06/26 03:24:08;;;;;;;16.40;14.37;;;15.10;99.90;;;;;;4995439;28;20456;-80
2021/06/26 03:26:35;;;;;;;22.73;16.77;;;15.00;99.90;;;;;;4988344;28;20556;-79
2021/06/26 03:29:03;;;;;;;19.50;16.20;;;14.90;99.90;;;;;;5017711;28;20427;-78
2021/06/26 03:31:31;;;;;;;16.30;12.47;;;14.90;99.90;;;;;;4992934;28;20553;-80
2021/06/26 03:33:58;;;;;;;15.30;11.63;;;14.90;99.90;;;;;;4985355;28;20430;-83
2021/06/26 03:36:25;;;;;;;16.60;11.80;;;14.90;99.90;;;;;;4984104;28;20508;-79
2021/06/26 03:38:53;;;;;;;15.90;11.27;;;14.90;99.90;;;;;;4980429;28;20982;-78
2021/06/26 03:41:26;;;;;;;12.70;10.90;;;14.80;99.90;;;;;;4996817;28;20467;-78
2021/06/26 03:43:57;;;;;;;17.33;11.03;;;14.70;99.90;;;;;;4981516;28;20978;-80
2021/06/26 03:46:25;;;;;;;15.23;11.20;;;14.80;99.90;;;;;;4977248;28;20490;-78
2021/06/26 03:48:52;;;;;;;11.30;9.70;;;14.70;99.90;;;;;;4977751;28;20455;-79
2021/06/26 03:51:19;;;;;;;16.10;12.67;;;14.70;99.90;;;;;;4961648;28;20485;-78
2021/06/26 03:53:47;;;;;;;15.00;11.10;;;14.60;99.90;;;;;;4962545;28;20442;-82
2021/06/26 03:56:14;;;;;;;14.57;12.60;;;14.50;99.90;;;;;;4960811;28;20572;-79
2021/06/26 03:58:41;;;;;;;14.43;10.93;;;14.50;99.90;;;;;;4946317;28;20457;-78
2021/06/26 04:01:08;;;;;;;19.03;11.13;;;14.60;99.90;;;;;;4949648;28;21040;-81
2021/06/26 04:03:35;;;;;;;17.43;11.13;;;14.50;99.90;;;;;;4978162;28;20441;-81
2021/06/26 04:06:01;;;;;;;16.80;10.07;;;14.50;99.90;;;;;;4977330;28;20484;-79
2021/06/26 04:08:28;;;;;;;13.90;11.37;;;14.50;99.90;;;;;;4984047;28;20466;-79
2021/06/26 04:10:55;;;;;;;13.37;10.43;;;14.50;99.90;;;;;;4993511;28;20455;-77
2021/06/26 04:13:22;;;;;;;17.10;11.93;;;14.40;99.90;;;;;;4962814;28;20496;-82
2021/06/26 04:15:49;;;;;;;14.73;11.80;;;14.50;99.90;;;;;;4998719;28;20872;-78
2021/06/26 04:18:16;;;;;;;15.30;10.40;;;14.50;99.90;;;;;;5010438;28;20481;-79
2021/06/26 04:20:43;;;;;;;14.60;11.50;;;14.40;99.90;;;;;;4981674;28;20966;-78
2021/06/26 04:23:10;;;;;;;18.17;10.77;;;14.40;99.90;;;;;;4996854;28;20472;-79
2021/06/26 04:25:37;;;;;;;16.33;12.20;;;14.50;99.90;;;;;;4979622;28;20560;-81
2021/06/26 04:28:06;;;;;;;12.50;10.60;;;14.40;99.90;;;;;;4978947;28;20875;-79
2021/06/26 04:30:34;;;;;;;14.40;12.80;;;14.50;99.90;;;;;;4985709;28;20984;-80
2021/06/26 04:33:03;;;;;;;15.57;12.70;;;14.50;99.90;;;;;;4984506;28;20423;-79
2021/06/26 04:35:31;;;;;;;17.37;12.30;;;14.60;99.90;;;;;;5015219;28;20969;-79
2021/06/26 04:37:58;;;;;;;17.00;12.40;;;14.60;99.90;;;;;;4973241;28;20511;-79
2021/06/26 04:40:25;;;;;;;18.80;13.67;;;14.70;99.90;;;;;;4993006;28;20491;-79
2021/06/26 04:42:53;;;;;;;18.00;13.47;;;14.70;99.90;;;;;;4975981;28;20881;-78
2021/06/26 04:45:20;;;;;;;15.07;12.97;;;14.70;99.90;;;;;;4976503;28;20464;-82
2021/06/26 04:47:47;;;;;;;15.80;13.10;;;14.80;99.90;;;;;;4996033;28;20483;-79
2021/06/26 04:50:15;;;;;;;17.73;12.27;;;14.80;99.90;;;;;;4979376;28;20439;-80
2021/06/26 04:52:44;;;;;;;19.07;13.40;;;14.80;99.90;;;;;;4978556;28;20523;-79
2021/06/26 04:55:11;;;;;;;21.90;13.50;;;14.80;99.90;;;;;;4979170;28;20444;-80
2021/06/26 04:57:38;;;;;;;16.20;12.20;;;14.80;99.90;;;;;;4978327;28;20570;-79
2021/06/26 05:00:06;;;;;;;15.40;11.90;;;14.80;99.90;;;;;;4994044;28;20474;-80
2021/06/26 05:02:33;;;;;;;15.43;13.70;;;14.90;99.90;;;;;;4995685;28;20480;-79
2021/06/26 05:05:00;;;;;;;18.70;12.47;;;14.90;99.90;;;;;;4996033;28;20681;-80
2021/06/26 05:07:27;;;;;;;19.10;12.10;;;15.00;99.90;;;;;;4992037;28;20999;-79
2021/06/26 05:09:54;;;;;;;20.23;13.03;;;15.10;99.90;;;;;;4978137;28;20438;-77
2021/06/26 05:12:21;;;;;;;22.97;16.50;;;15.20;99.90;;;;;;4993867;28;20490;-79
2021/06/26 05:14:48;;;;;;;19.97;17.80;;;15.30;99.90;;;;;;4978174;28;20809;-80
2021/06/26 05:17:15;;;;;;;23.10;16.20;;;15.40;99.90;;;;;;4974041;28;20566;-80
2021/06/26 05:19:42;;;;;;;26.03;16.57;;;15.50;99.90;;;;;;4990347;28;20828;-80
2021/06/26 05:22:09;;;;;;;20.67;16.63;;;15.60;99.90;;;;;;4992484;28;21207;-79
2021/06/26 05:24:36;;;;;;;19.90;17.70;;;15.80;99.90;;;;;;4994181;28;20429;-79
2021/06/26 05:27:03;;;;;;;22.10;15.57;;;15.90;99.90;;;;;;4994326;28;20462;-77
2021/06/26 05:29:31;;;;;;;19.93;15.77;;;16.00;99.90;;;;;;4992643;28;20422;-79
2021/06/26 05:31:58;;;;;;;21.90;15.23;;;16.10;99.90;;;;;;4991950;28;20553;-78
2021/06/26 05:34:25;;;;;;;20.50;16.20;;;16.20;99.90;;;;;;4990498;28;20448;-78
2021/06/26 05:36:52;;;;;;;22.00;17.60;;;16.30;99.90;;;;;;5009556;28;20463;-78
2021/06/26 05:39:18;;;;;;;19.93;16.37;;;16.40;99.90;;;;;;4991562;28;20422;-78
2021/06/26 05:41:48;;;;;;;20.30;16.77;;;16.50;99.90;;;;;;4991241;28;20665;-78
2021/06/26 05:44:15;;;;;;;20.03;16.90;;;16.60;99.90;;;;;;4974825;28;20919;-77
2021/06/26 05:46:42;;;;;;;20.30;17.60;;;16.70;99.90;;;;;;4989394;28;20972;-77
2021/06/26 05:49:09;;;;;;;21.53;18.00;;;16.80;99.90;;;;;;5006157;28;20422;-78
2021/06/26 05:51:36;;;;;;;21.77;16.47;;;16.90;99.90;;;;;;4974083;28;20465;-78
2021/06/26 05:54:03;;;;;;;25.63;19.57;;;17.00;99.90;;;;;;5005999;28;20454;-79
2021/06/26 05:56:30;;;;;;;24.20;21.23;;;17.10;99.90;;;;;;4990225;28;20551;-77
2021/06/26 05:58:58;;;;;;;27.77;20.00;;;17.30;99.90;;;;;;4975192;28;20990;-78
2021/06/26 06:01:25;;;;;;;28.33;22.00;;;17.40;99.90;;;;;;4989577;28;20466;-80
2021/06/26 06:03:53;;;;;;;25.83;20.53;;;17.50;99.90;;;;;;4991857;28;20465;-79
2021/06/26 06:06:19;;;;;;;33.83;22.40;;;17.70;99.90;;;;;;4955903;28;1072723;-77
2021/06/26 06:08:46;;;;;;;28.77;22.97;;;17.80;99.90;;;;;;4977028;28;20212;-76
2021/06/26 06:11:16;;;;;;;26.20;20.87;;;17.90;99.90;;;;;;4971994;28;20455;-79
2021/06/26 06:13:43;;;;;;;28.13;21.80;;;18.20;99.90;;;;;;4972265;28;20787;-77
2021/06/26 06:16:10;;;;;;;29.83;23.63;;;18.40;99.90;;;;;;4991481;28;20488;-78
2021/06/26 06:18:37;;;;;;;28.37;22.57;;;18.60;99.90;;;;;;4992658;28;20597;-77
2021/06/26 06:21:04;;;;;;;28.43;20.90;;;18.70;99.90;;;;;;4992132;28;20455;-77
2021/06/26 06:23:31;;;;;;;29.27;19.87;;;18.80;99.90;;;;;;4978416;28;20957;-77
2021/06/26 06:25:58;;;;;;;22.73;19.63;;;19.00;99.90;;;;;;4971417;28;20463;-77
2021/06/26 06:28:24;;;;;;;26.00;22.07;;;19.20;99.90;;;;;;4975859;28;20442;-77
2021/06/26 06:30:51;;;;;;;23.67;19.93;;;19.30;99.90;;;;;;4976781;28;20451;-78
2021/06/26 06:33:20;;;;;;;25.87;20.33;;;19.40;99.90;;;;;;4979343;28;20455;-78
2021/06/26 06:35:48;;;;;;;24.67;20.70;;;19.40;99.90;;;;;;4996539;28;20427;-78
2021/06/26 06:38:15;;;;;;;24.10;20.00;;;19.50;99.90;;;;;;4991644;28;20558;-78
2021/06/26 06:40:46;;;;;;;25.07;18.37;;;19.60;99.90;;;;;;4987576;28;20988;-78
2021/06/26 06:43:13;;;;;;;27.57;20.90;;;19.70;99.90;;;;;;4995008;28;20433;-77
2021/06/26 06:45:40;;;;;;;26.90;20.80;;;19.80;99.90;;;;;;4994821;28;20475;-77
2021/06/26 06:48:07;;;;;;;27.10;20.03;;;19.90;99.90;;;;;;4995656;28;20467;-77
2021/06/26 06:50:34;;;;;;;24.60;19.70;;;19.90;99.90;;;;;;4994742;28;20450;-78
2021/06/26 06:53:02;;;;;;;29.47;22.57;;;20.00;99.90;;;;;;4993962;28;20449;-78
2021/06/26 06:55:29;;;;;;;25.90;22.50;;;20.10;99.90;;;;;;4995265;28;20785;-78
2021/06/26 06:57:57;;;;;;;25.50;20.57;;;20.20;99.90;;;;;;4995343;28;20972;-77
2021/06/26 07:00:24;;;;;;;27.40;22.60;;;20.30;99.90;;;;;;4992100;28;20482;-77
2021/06/26 07:02:51;;;;;;;30.00;22.30;;;20.50;99.90;;;;;;4976099;28;20467;-77
2021/06/26 07:05:17;;;;;;;25.73;21.57;;;20.70;99.90;;;;;;4995344;28;20441;-77
2021/06/26 07:07:44;;;;;;;27.77;21.93;;;20.70;99.90;;;;;;4980733;28;20746;-77
2021/06/26 07:10:11;;;;;;;23.47;18.60;;;20.80;99.90;;;;;;4987507;28;20438;-77
2021/06/26 07:12:38;;;;;;;27.80;20.07;;;20.80;99.90;;;;;;4994517;28;20558;-77
2021/06/26 07:15:06;;;;;;;27.60;21.27;;;20.90;99.90;;;;;;4995149;28;20465;-78
2021/06/26 07:17:33;;;;;;;28.20;20.47;;;21.00;99.90;;;;;;4993503;28;20476;-79
2021/06/26 07:20:00;;;;;;;20.70;18.47;;;21.10;99.90;;;;;;4995317;28;20529;-79
2021/06/26 07:22:27;;;;;;;24.63;19.80;;;21.20;99.90;;;;;;4989493;28;20479;-76
2021/06/26 07:24:54;;;;;;;24.33;19.50;;;21.10;99.90;;;;;;4980176;28;20513;-78
2021/06/26 07:27:21;;;;;;;31.00;21.53;;;21.30;99.90;;;;;;4995793;28;20819;-75
2021/06/26 07:29:48;;;;;;;23.90;20.53;;;21.40;99.90;;;;;;4995781;28;20434;-79
2021/06/26 07:32:14;;;;;;;25.17;19.93;;;21.40;99.90;;;;;;4994931;28;20825;-76
2021/06/26 07:34:41;;;;;;;27.93;21.80;;;21.50;99.90;;;;;;4979999;28;20458;-79
2021/06/26 07:37:08;;;;;;;28.50;22.47;;;21.50;99.90;;;;;;4977684;28;20470;-75
2021/06/26 07:39:35;;;;;;;27.00;21.07;;;21.50;99.90;;;;;;4979821;28;20425;-76
2021/06/26 07:42:02;;;;;;;23.30;20.87;;;21.60;99.90;;;;;;4978607;28;20978;-77
2021/06/26 07:44:28;;;;;;;23.70;19.10;;;21.60;99.90;;;;;;4997010;28;20432;-77
2021/06/26 07:46:56;;;;;;;27.50;21.63;;;21.70;99.90;;;;;;4996126;28;20993;-79
2021/06/26 07:49:23;;;;;;;26.43;20.83;;;21.70;99.90;;;;;;4979991;28;20542;-77
2021/06/26 07:51:50;;;;;;;24.57;19.80;;;21.70;98.80;;;;;;4978896;28;20466;-79
2021/06/26 07:54:17;;;;;;;23.67;19.40;;;21.80;98.80;;;;;;4979134;28;20438;-77
2021/06/26 07:56:45;;;;;;;26.10;20.37;;;21.90;99.90;;;;;;4993915;28;20894;-78
2021/06/26 07:59:12;;;;;;;27.27;22.13;;;22.10;99.20;;;;;;5003589;28;21000;-79
2021/06/26 08:01:40;;;;;;;23.80;21.30;;;22.10;96.30;;;;;;4999599;28;20456;-79
2021/06/26 08:04:07;;;;;;;23.13;19.70;;;22.20;96.00;;;;;;4980175;28;20854;-79
2021/06/26 08:06:34;;;;;;;22.93;19.53;;;22.10;94.00;;;;;;4979996;28;20520;-79
2021/06/26 08:09:01;;;;;;;25.20;19.90;;;22.20;94.10;;;;;;5003020;28;20531;-79
2021/06/26 08:11:28;;;;;;;24.23;21.63;;;22.20;95.70;;;;;;4976281;28;20479;-79
2021/06/26 08:13:57;;;;;;;24.63;18.40;;;22.30;95.90;;;;;;4993321;28;20447;-78
2021/06/26 08:16:25;;;;;;;20.93;18.80;;;22.30;96.90;;;;;;4970851;28;20467;-80
2021/06/26 08:18:52;;;;;;;21.77;17.90;;;22.40;94.70;;;;;;4979488;28;20804;-79
2021/06/26 08:21:20;;;;;;;17.43;15.57;;;22.40;92.10;;;;;;4979504;28;20466;-78
2021/06/26 08:23:49;;;;;;;17.40;15.70;;;22.50;92.00;;;;;;4968328;28;20474;-79
2021/06/26 08:26:16;;;;;;;16.90;15.10;;;22.60;90.60;;;;;;4959061;28;20984;-76
2021/06/26 08:28:43;;;;;;;16.40;14.77;;;22.70;90.90;;;;;;4974584;28;20463;-76
2021/06/26 08:31:10;;;;;;;14.37;12.87;;;22.60;85.30;;;;;;4956982;28;20465;-78
2021/06/26 08:33:37;;;;;;;20.63;15.23;;;22.80;91.00;;;;;;5009281;28;20435;-78
2021/06/26 08:36:04;;;;;;;18.43;15.00;;;22.90;89.60;;;;;;4993117;28;20884;-76
2021/06/26 08:38:31;;;;;;;16.67;14.90;;;23.00;90.40;;;;;;5008237;28;20571;-77
2021/06/26 08:40:58;;;;;;;15.73;14.00;;;23.10;89.60;;;;;;4993676;28;20858;-77
2021/06/26 08:43:27;;;;;;;16.43;14.23;;;23.20;90.10;;;;;;4994276;28;20420;-77
2021/06/26 08:45:55;;;;;;;13.77;12.10;;;23.10;81.60;;;;;;4975710;28;20460;-76
2021/06/26 08:48:23;;;;;;;13.53;12.10;;;23.20;84.00;;;;;;4994898;28;20539;-77
2021/06/26 08:50:50;;;;;;;14.50;11.43;;;23.30;82.20;;;;;;5007616;28;20443;-79
2021/06/26 08:53:17;;;;;;;14.73;11.60;;;23.20;79.90;;;;;;4986811;28;20536;-78
2021/06/26 08:55:44;;;;;;;13.30;11.97;;;23.20;82.20;;;;;;4993324;28;20531;-77
2021/06/26 08:58:12;;;;;;;13.60;10.90;;;23.10;77.10;;;;;;4973609;28;20450;-76
2021/06/26 09:00:39;;;;;;;12.80;11.60;;;23.10;79.60;;;;;;4974719;28;20488;-81
2021/06/26 09:03:14;;;;;;;12.20;10.97;;;23.10;77.40;;;;;;4957648;28;20534;-76
2021/06/26 09:05:44;;;;;;;13.00;11.17;;;23.10;81.40;;;;;;4983324;28;20435;-77
2021/06/26 09:08:15;;;;;;;13.47;10.97;;;23.10;77.60;;;;;;4992749;28;20497;-76
2021/06/26 09:10:45;;;;;;;13.07;10.67;;;22.90;75.10;;;;;;4993339;28;20942;-77
2021/06/26 09:13:23;;;;;;;10.67;8.93;;;22.80;80.70;;;;;;4993640;28;20428;-76
2021/06/26 09:16:11;;;;;;;12.60;10.40;;;22.80;79.50;;;;;;4990119;28;21003;-76
2021/06/26 09:18:49;;;;;;;10.30;9.20;;;22.80;79.30;;;;;;5010701;28;20558;-77
2021/06/26 09:24:12;;;;;;;11.67;9.30;;;23.10;78.30;;;;;;4976076;28;21013;-77
2021/06/26 09:26:55;;;;;;;11.43;10.20;;;23.10;75.30;;;;;;4987560;28;20472;-76
2021/06/26 09:29:22;;;;;;;11.13;9.67;;;23.30;74.70;;;;;;4960132;28;20754;-77
2021/06/26 09:31:56;;;;;;;11.53;8.27;;;23.40;74.80;;;;;;4983186;28;20983;-77
2021/06/26 09:34:44;;;;;;;9.33;8.33;;;23.70;71.50;;;;;;4958846;28;20456;-78
2021/06/26 09:37:16;;;;;;;10.03;9.13;;;23.90;74.30;;;;;;5013766;28;20478;-78
2021/06/26 09:39:45;;;;;;;9.60;7.40;;;23.90;69.60;;;;;;4986387;28;20458;-79
2021/06/26 09:42:19;;;;;;;8.90;8.10;;;24.10;69.40;;;;;;4971015;28;21010;-79
2021/06/26 09:45:11;;;;;;;8.23;7.00;;;24.10;70.00;;;;;;4962475;28;20443;-79
2021/06/26 09:47:45;;;;;;;7.27;6.20;;;24.20;66.10;;;;;;5010467;28;20870;-79
2021/06/26 09:50:21;;;;;;;10.93;7.90;;;24.20;66.10;;;;;;4998351;28;20442;-78
2021/06/26 09:52:53;;;;;;;8.83;8.00;;;24.10;68.40;;;;;;4975360;28;20465;-78
2021/06/26 09:55:31;;;;;;;9.67;6.50;;;24.00;67.70;;;;;;4962070;28;20439;-78
2021/06/26 09:58:08;;;;;;;8.50;7.40;;;23.90;64.10;;;;;;4960954;28;20489;-78
2021/06/26 10:00:36;;;;;;;9.50;7.83;;;23.80;65.60;;;;;;4961838;28;20442;-78
2021/06/26 10:03:04;;;;;;;10.90;6.80;;;23.60;66.30;;;;;;4996865;28;20516;-79
2021/06/26 10:05:32;;;;;;;7.77;7.07;;;23.60;67.40;;;;;;4981489;28;20924;-80
2021/06/26 10:08:02;;;;;;;8.03;7.30;;;23.50;65.50;;;;;;4980813;28;20470;-78
2021/06/26 10:10:30;;;;;;;8.00;7.20;;;23.50;70.90;;;;;;4996976;28;20422;-78
2021/06/26 10:12:58;;;;;;;7.67;6.87;;;23.50;68.30;;;;;;5019155;28;20489;-78
2021/06/26 10:15:28;;;;;;;7.73;6.17;;;23.50;66.80;;;;;;4991003;28;20438;-78
2021/06/26 10:17:55;;;;;;;9.17;8.27;;;23.70;68.20;;;;;;5005835;28;20471;-79
2021/06/26 10:20:24;;;;;;;8.30;7.50;;;23.90;69.80;;;;;;4990562;28;20443;-78
2021/06/26 10:22:56;;;;;;;7.47;6.87;;;24.10;65.70;;;;;;4982784;28;20470;-80
2021/06/26 10:25:39;;;;;;;7.30;6.57;;;24.30;65.00;;;;;;4967348;28;20445;-79
2021/06/26 10:28:14;;;;;;;11.60;7.90;;;24.50;61.20;;;;;;4960908;28;20535;-80
2021/06/26 10:30:42;;;;;;;8.43;7.53;;;24.60;63.30;;;;;;4975671;28;20919;-79
2021/06/26 10:33:10;;;;;;;6.43;5.83;;;24.60;60.60;;;;;;4960789;28;20552;-79
2021/06/26 10:35:50;;;;;;;8.30;7.63;;;24.70;63.60;;;;;;4973914;28;20453;-78
2021/06/26 10:38:16;;;;;;;7.77;7.07;;;24.70;60.60;;;;;;4984427;28;20492;-78
2021/06/26 10:40:55;;;;;;;7.00;6.27;;;24.80;55.70;;;;;;4976857;28;20447;-79
2021/06/26 10:43:29;;;;;;;8.40;7.53;;;24.90;54.60;;;;;;4977821;28;20422;-79
2021/06/26 10:46:10;;;;;;;7.60;6.83;;;24.80;54.40;;;;;;4975648;28;20537;-79
2021/06/26 10:48:40;;;;;;;9.17;7.07;;;24.80;61.50;;;;;;4973909;28;20461;-77
2021/06/26 10:51:09;;;;;;;8.73;7.90;;;24.90;55.00;;;;;;4975419;28;20468;-78
2021/06/26 10:53:39;;;;;;;7.53;6.83;;;24.90;58.10;;;;;;4984411;28;20737;-78
2021/06/26 10:56:11;;;;;;;8.13;7.43;;;24.90;53.80;;;;;;4961038;28;20450;-77
2021/06/26 10:58:40;;;;;;;9.77;7.40;;;25.10;54.30;;;;;;4963706;28;20468;-79
2021/06/26 11:01:25;;;;;;;8.30;6.80;;;25.10;61.30;;;;;;4976808;28;20480;-78
2021/06/26 11:04:09;;;;;;;7.70;7.10;;;25.30;57.30;;;;;;4992369;28;20540;-78
2021/06/26 11:06:37;;;;;;;11.53;8.73;;;25.20;56.90;;;;;;4974847;28;21066;-78
2021/06/26 11:09:10;;;;;;;12.97;9.47;;;25.40;53.20;;;;;;4970672;28;21022;-78
2021/06/26 11:11:42;;;;;;;7.27;6.67;;;25.50;54.00;;;;;;4964628;28;21028;-78
2021/06/26 11:14:15;;;;;;;7.43;6.77;;;25.60;55.60;;;;;;4996429;28;20456;-77
2021/06/26 11:16:50;;;;;;;8.37;7.57;;;25.60;51.60;;;;;;4980768;28;20470;-78
2021/06/26 11:19:19;;;;;;;11.33;10.00;;;25.70;54.10;;;;;;5006453;28;20444;-80
2021/06/26 11:21:52;;;;;;;10.60;7.23;;;25.70;53.20;;;;;;5012773;28;20483;-78
2021/06/26 11:24:34;;;;;;;8.40;7.80;;;25.70;53.40;;;;;;5002069;28;20454;-78
2021/06/26 11:27:02;;;;;;;7.20;6.60;;;25.80;53.90;;;;;;4982424;28;20993;-77
2021/06/26 11:29:37;;;;;;;7.20;6.60;;;25.90;54.40;;;;;;4994189;28;20461;-77
2021/06/26 11:32:17;;;;;;;8.63;7.97;;;26.00;54.50;;;;;;4963057;28;20483;-80
2021/06/26 11:34:51;;;;;;;7.10;6.50;;;25.90;54.60;;;;;;4976533;28;20446;-78
2021/06/26 11:37:18;;;;;;;7.90;6.83;;;26.00;53.00;;;;;;4991071;28;20480;-79
2021/06/26 11:39:45;;;;;;;6.90;6.30;;;25.90;52.10;;;;;;4998676;28;20449;-78
2021/06/26 11:42:17;;;;;;;7.33;6.67;;;25.90;52.60;;;;;;4985360;28;21000;-79
2021/06/26 11:44:45;;;;;;;7.40;6.80;;;25.90;53.20;;;;;;4996741;28;20448;-78
2021/06/26 11:47:12;;;;;;;6.07;5.57;;;25.90;52.80;;;;;;4977750;28;20461;-79
2021/06/26 11:49:45;;;;;;;6.70;6.10;;;26.00;49.90;;;;;;4963130;28;20453;-78
2021/06/26 11:52:14;;;;;;;10.13;7.03;;;26.20;51.60;;;;;;4994995;28;21090;-79
2021/06/26 11:54:42;;;;;;;6.87;6.20;;;26.30;53.30;;;;;;4978283;28;20431;-79
2021/06/26 11:57:12;;;;;;;6.77;6.07;;;26.30;50.00;;;;;;4994385;28;20465;-78
2021/06/26 11:59:40;;;;;;;7.43;6.73;;;26.30;51.80;;;;;;4996603;28;20418;-79
2021/06/26 12:02:08;;;;;;;7.20;6.60;;;26.30;50.50;;;;;;5007825;28;20468;-78
2021/06/26 12:04:37;;;;;;;8.03;6.83;;;26.20;52.50;;;;;;4983411;28;20453;-79
2021/06/26 12:07:06;;;;;;;6.23;5.73;;;26.30;51.60;;;;;;5005276;28;21000;-79
2021/06/26 12:09:34;;;;;;;7.73;6.97;;;26.30;47.90;;;;;;4997009;28;20448;-79
2021/06/26 12:12:03;;;;;;;10.60;6.50;;;26.20;50.40;;;;;;4984824;28;20470;-79
2021/06/26 12:14:33;;;;;;;7.87;5.77;;;26.40;47.90;;;;;;4991892;28;20438;-81
2021/06/26 12:17:12;;;;;;;6.90;6.30;;;26.40;49.10;;;;;;4994351;28;20578;-80
2021/06/26 12:19:40;;;;;;;5.93;5.43;;;26.30;47.80;;;;;;4979409;28;20544;-81
2021/06/26 12:22:08;;;;;;;7.20;6.60;;;26.30;49.40;;;;;;4992625;28;20473;-80
2021/06/26 12:24:40;;;;;;;7.13;6.60;;;26.30;50.10;;;;;;5010315;28;20442;-82
2021/06/26 12:27:18;;;;;;;8.63;6.53;;;26.30;49.70;;;;;;4990665;28;20993;-81
2021/06/26 12:30:00;;;;;;;6.30;5.80;;;26.20;46.20;;;;;;4960368;28;20423;-81
2021/06/26 12:32:31;;;;;;;5.80;5.33;;;26.10;48.10;;;;;;4978677;28;20492;-81
2021/06/26 12:35:00;;;;;;;8.20;6.67;;;26.10;48.60;;;;;;4978852;28;20438;-81
2021/06/26 12:37:32;;;;;;;7.90;6.23;;;26.10;48.30;;;;;;4977200;28;20478;-80
2021/06/26 12:40:16;;;;;;;9.43;6.43;;;26.10;49.50;;;;;;4978488;28;20434;-81